Time;durP1;ratioP1;P1;durP2;ratioP2;P2;SDS_P1;SDS_P2;PMS_P1;PMS_P2;Temp;Humidity;BMP_temperature;BMP_pressure;BME280_temperature;BME280_humidity;BME280_pressure;Samples;Min_cycle;Max_cycle;Signal;HPM_P1;HPM_P2
2022/08/09 00:01:30;;;;;;;3.97;2.23;;;16.80;93.70;;;;;;5030458;28;20452;-66
2022/08/09 00:03:57;;;;;;;9.73;2.90;;;16.80;93.70;;;;;;5030536;28;20446;-67
2022/08/09 00:06:24;;;;;;;3.83;2.77;;;16.70;94.50;;;;;;5030064;28;20837;-67
2022/08/09 00:08:53;;;;;;;4.97;2.80;;;16.60;94.50;;;;;;5030147;28;20464;-66
2022/08/09 00:11:21;;;;;;;3.13;2.30;;;16.60;94.90;;;;;;5030173;28;20544;-66
2022/08/09 00:13:48;;;;;;;5.10;2.60;;;16.60;95.40;;;;;;5030013;28;20515;-66
2022/08/09 00:16:15;;;;;;;3.43;3.03;;;16.60;96.60;;;;;;5029633;28;20476;-65
2022/08/09 00:18:42;;;;;;;4.37;2.70;;;16.60;96.50;;;;;;5030305;28;20478;-66
2022/08/09 00:21:09;;;;;;;3.97;2.33;;;16.40;97.60;;;;;;5030217;28;20449;-65
2022/08/09 00:23:37;;;;;;;4.67;3.27;;;16.40;97.20;;;;;;5029983;28;20467;-65
2022/08/09 00:26:06;;;;;;;4.13;2.60;;;16.30;98.40;;;;;;5029580;28;20476;-66
2022/08/09 00:28:33;;;;;;;4.53;2.60;;;16.30;98.80;;;;;;5029934;28;20453;-66
2022/08/09 00:31:00;;;;;;;3.50;2.73;;;16.30;97.10;;;;;;5030060;28;20453;-66
2022/08/09 00:33:27;;;;;;;3.67;2.97;;;16.30;98.60;;;;;;5029904;28;20457;-66
2022/08/09 00:35:54;;;;;;;3.90;2.57;;;16.20;99.90;;;;;;5029617;28;20480;-68
2022/08/09 00:38:21;;;;;;;3.97;2.70;;;16.20;99.90;;;;;;5029950;28;20457;-67
2022/08/09 00:40:48;;;;;;;4.00;3.00;;;16.20;99.90;;;;;;5029740;28;20547;-66
2022/08/09 00:43:16;;;;;;;4.27;2.83;;;16.20;99.90;;;;;;5029657;28;20843;-66
2022/08/09 00:45:43;;;;;;;3.53;2.73;;;16.10;99.90;;;;;;5029410;28;20465;-67
2022/08/09 00:48:10;;;;;;;3.93;2.90;;;16.00;99.90;;;;;;5029942;28;20476;-66
2022/08/09 00:50:37;;;;;;;5.20;3.20;;;16.00;99.90;;;;;;5029691;28;20471;-67
2022/08/09 00:53:05;;;;;;;4.80;3.30;;;16.10;99.90;;;;;;5029796;28;21013;-66
2022/08/09 00:55:31;;;;;;;6.90;3.40;;;16.10;99.90;;;;;;5029546;28;20481;-66
2022/08/09 00:57:58;;;;;;;8.00;2.47;;;16.10;99.90;;;;;;5029476;28;20464;-67
2022/08/09 01:00:27;;;;;;;5.10;2.90;;;16.00;99.90;;;;;;5030106;28;20441;-66
2022/08/09 01:03:03;;;;;;;5.10;2.93;;;15.90;99.90;;;;;;5030085;28;20471;-66
2022/08/09 01:05:37;;;;;;;4.40;3.03;;;15.90;99.90;;;;;;5029713;28;20444;-66
2022/08/09 01:08:10;;;;;;;5.43;2.77;;;15.90;99.90;;;;;;5029689;28;20444;-66
2022/08/09 01:10:45;;;;;;;4.83;3.60;;;15.70;99.90;;;;;;5029671;28;20449;-67
2022/08/09 01:13:19;;;;;;;3.17;2.87;;;15.70;99.90;;;;;;5029851;28;20448;-66
2022/08/09 01:15:50;;;;;;;6.87;3.50;;;15.70;99.90;;;;;;5029210;28;20491;-66
2022/08/09 01:18:21;;;;;;;3.10;2.80;;;15.70;99.90;;;;;;5029541;28;20791;-66
2022/08/09 01:21:04;;;;;;;6.03;3.20;;;15.70;99.90;;;;;;5029318;28;20949;-66
2022/08/09 01:23:42;;;;;;;6.17;3.53;;;15.60;99.90;;;;;;5012097;28;20550;-66
2022/08/09 01:26:21;;;;;;;3.33;2.80;;;15.60;99.90;;;;;;5029101;28;20479;-66
2022/08/09 01:28:54;;;;;;;3.47;3.17;;;15.50;99.90;;;;;;5029457;28;20440;-66
2022/08/09 01:31:26;;;;;;;3.50;3.00;;;15.40;99.90;;;;;;5029362;28;20534;-66
2022/08/09 01:33:56;;;;;;;3.43;3.00;;;15.40;99.90;;;;;;5029278;28;20962;-66
2022/08/09 01:36:26;;;;;;;5.70;3.77;;;15.40;99.90;;;;;;5029382;28;20993;-67
2022/08/09 01:38:54;;;;;;;3.40;3.00;;;15.40;99.90;;;;;;5029342;28;20451;-66
2022/08/09 01:41:24;;;;;;;5.70;3.13;;;15.50;99.90;;;;;;5029282;28;20451;-66
2022/08/09 01:43:54;;;;;;;3.43;2.70;;;15.50;99.90;;;;;;5029162;28;20459;-66
2022/08/09 01:46:25;;;;;;;4.10;2.40;;;15.50;99.90;;;;;;5029375;28;20556;-67
2022/08/09 01:48:53;;;;;;;3.40;2.83;;;15.50;99.90;;;;;;5029474;28;20449;-67
2022/08/09 01:51:22;;;;;;;3.23;2.93;;;15.50;99.90;;;;;;5029379;28;20471;-66
2022/08/09 01:53:51;;;;;;;6.57;2.87;;;15.40;99.90;;;;;;5029126;28;20445;-67
2022/08/09 01:56:19;;;;;;;3.50;2.70;;;15.40;99.90;;;;;;5028641;28;20998;-66
2022/08/09 01:58:46;;;;;;;8.50;3.10;;;15.30;99.90;;;;;;5029238;28;20448;-67
2022/08/09 02:01:15;;;;;;;3.57;2.97;;;15.20;99.90;;;;;;5029200;28;20452;-67
2022/08/09 02:03:43;;;;;;;4.00;2.90;;;15.20;99.90;;;;;;5029133;28;20452;-66
2022/08/09 02:06:11;;;;;;;8.10;3.10;;;15.20;99.90;;;;;;5028683;28;20453;-66
2022/08/09 02:08:42;;;;;;;4.40;3.03;;;15.30;99.90;;;;;;5028893;28;20445;-67
2022/08/09 02:11:11;;;;;;;4.83;3.43;;;15.20;99.90;;;;;;5032060;28;20445;-66
2022/08/09 02:13:38;;;;;;;5.40;3.00;;;15.20;99.90;;;;;;5032679;28;20445;-66
2022/08/09 02:16:10;;;;;;;3.13;2.83;;;15.20;99.90;;;;;;5032198;28;20485;-66
2022/08/09 02:18:39;;;;;;;3.20;2.90;;;15.20;99.90;;;;;;5032485;28;20448;-66
2022/08/09 02:21:11;;;;;;;4.43;3.37;;;15.20;99.90;;;;;;5032346;28;20452;-66
2022/08/09 02:23:40;;;;;;;4.33;3.20;;;15.20;99.90;;;;;;5032628;28;20440;-67
2022/08/09 02:26:10;;;;;;;4.27;3.37;;;15.20;99.90;;;;;;5031957;28;20504;-66
2022/08/09 02:28:41;;;;;;;5.73;3.67;;;15.10;99.90;;;;;;5032352;28;20457;-66
2022/08/09 02:31:12;;;;;;;4.70;3.00;;;15.10;99.90;;;;;;5032258;28;20445;-66
2022/08/09 02:33:44;;;;;;;6.70;3.30;;;15.00;99.90;;;;;;5032078;28;20449;-66
2022/08/09 02:36:17;;;;;;;3.77;3.07;;;14.90;99.90;;;;;;5031888;28;20488;-66
2022/08/09 02:38:47;;;;;;;3.80;3.47;;;14.90;99.90;;;;;;5032283;28;20441;-67
2022/08/09 02:41:25;;;;;;;5.07;3.50;;;14.90;99.90;;;;;;5031965;28;20942;-66
2022/08/09 02:43:54;;;;;;;3.60;2.90;;;14.90;99.90;;;;;;5031931;28;20930;-67
2022/08/09 02:46:24;;;;;;;5.50;3.53;;;14.70;99.90;;;;;;5031746;28;20460;-66
2022/08/09 02:48:55;;;;;;;3.57;3.27;;;14.70;99.90;;;;;;5032335;28;20448;-66
2022/08/09 02:51:24;;;;;;;5.17;3.73;;;14.80;99.90;;;;;;5031965;28;20544;-67
2022/08/09 02:53:57;;;;;;;5.07;3.83;;;14.80;99.90;;;;;;5031880;28;20449;-67
2022/08/09 02:56:25;;;;;;;4.97;4.43;;;14.80;99.90;;;;;;5031318;28;20562;-66
2022/08/09 02:58:53;;;;;;;5.53;4.00;;;14.80;99.90;;;;;;5031708;28;20456;-67
2022/08/09 03:01:21;;;;;;;4.47;3.50;;;14.60;99.90;;;;;;5031674;28;20449;-66
2022/08/09 03:03:49;;;;;;;3.73;3.37;;;14.60;99.90;;;;;;5031868;28;20445;-66
2022/08/09 03:06:21;;;;;;;4.20;3.63;;;14.50;99.90;;;;;;5031299;28;20477;-65
2022/08/09 03:08:49;;;;;;;4.70;3.80;;;14.50;99.90;;;;;;5031776;28;20441;-66
2022/08/09 03:11:19;;;;;;;4.70;4.20;;;14.40;99.90;;;;;;5031740;28;20532;-66
2022/08/09 03:13:48;;;;;;;4.37;3.80;;;14.40;99.90;;;;;;5031748;28;20449;-66
2022/08/09 03:16:17;;;;;;;4.03;3.47;;;14.50;99.90;;;;;;5031251;28;20487;-67
2022/08/09 03:18:46;;;;;;;5.97;4.10;;;14.40;99.90;;;;;;5031610;28;20457;-66
2022/08/09 03:21:14;;;;;;;4.40;4.00;;;14.40;99.90;;;;;;5031076;28;20449;-66
2022/08/09 03:23:45;;;;;;;4.20;3.50;;;14.40;99.90;;;;;;5031245;28;20453;-67
2022/08/09 03:26:14;;;;;;;5.53;3.50;;;14.30;99.90;;;;;;5031249;28;20477;-67
2022/08/09 03:28:41;;;;;;;3.97;3.57;;;14.30;99.90;;;;;;5031334;28;20818;-67
2022/08/09 03:31:08;;;;;;;4.57;3.80;;;14.40;99.90;;;;;;5031230;28;20824;-67
2022/08/09 03:33:37;;;;;;;4.73;4.30;;;14.40;99.90;;;;;;5031117;28;20464;-67
2022/08/09 03:36:06;;;;;;;4.40;4.00;;;14.30;99.90;;;;;;5030412;28;20487;-66
2022/08/09 03:38:33;;;;;;;4.90;3.27;;;14.30;99.90;;;;;;5030840;28;20451;-66
2022/08/09 03:41:01;;;;;;;9.93;4.20;;;14.20;99.90;;;;;;5031004;28;20448;-66
2022/08/09 03:43:28;;;;;;;4.90;4.40;;;14.20;99.90;;;;;;5030929;28;20476;-66
2022/08/09 03:45:55;;;;;;;5.23;4.73;;;14.00;99.90;;;;;;5030458;28;20472;-66
2022/08/09 03:48:24;;;;;;;4.43;4.03;;;14.10;99.90;;;;;;5030788;28;20444;-67
2022/08/09 03:50:53;;;;;;;4.00;3.70;;;14.00;99.90;;;;;;5030592;28;20449;-66
2022/08/09 03:53:21;;;;;;;6.33;3.90;;;14.00;99.90;;;;;;5030785;28;20455;-66
2022/08/09 03:55:49;;;;;;;4.43;3.80;;;14.00;99.90;;;;;;5030276;28;20871;-67
2022/08/09 03:58:17;;;;;;;5.20;3.87;;;14.00;99.90;;;;;;5030604;28;20441;-67
2022/08/09 04:00:45;;;;;;;5.37;3.90;;;14.00;99.90;;;;;;5030510;28;20455;-67
2022/08/09 04:03:12;;;;;;;7.60;4.10;;;14.00;99.90;;;;;;5030360;28;20457;-67
2022/08/09 04:05:39;;;;;;;4.40;4.00;;;14.00;99.90;;;;;;5030295;28;20449;-66
2022/08/09 04:08:06;;;;;;;4.30;3.90;;;14.00;99.90;;;;;;5030317;28;20954;-66
2022/08/09 04:10:33;;;;;;;3.93;3.53;;;14.00;99.90;;;;;;5030591;28;20448;-67
2022/08/09 04:13:08;;;;;;;5.80;5.20;;;14.00;99.90;;;;;;5030472;28;20467;-66
2022/08/09 04:15:37;;;;;;;4.43;3.77;;;13.90;99.90;;;;;;5029872;28;20483;-66
2022/08/09 04:18:04;;;;;;;4.83;3.83;;;13.90;99.90;;;;;;5030066;28;20446;-67
2022/08/09 04:20:32;;;;;;;4.57;4.20;;;14.00;99.90;;;;;;5030119;28;20457;-67
2022/08/09 04:22:58;;;;;;;6.63;4.30;;;13.90;99.90;;;;;;5030186;28;20451;-67
2022/08/09 04:25:25;;;;;;;5.20;4.50;;;13.90;99.90;;;;;;5029753;28;20448;-66
2022/08/09 04:27:52;;;;;;;10.23;4.20;;;13.90;99.90;;;;;;5029973;28;20460;-67
2022/08/09 04:30:21;;;;;;;4.40;4.00;;;13.90;99.90;;;;;;5029882;28;20943;-66
2022/08/09 04:32:50;;;;;;;9.10;4.40;;;14.00;99.90;;;;;;5029462;28;20457;-66
2022/08/09 04:35:17;;;;;;;6.67;4.50;;;14.00;99.90;;;;;;5029814;28;20683;-66
2022/08/09 04:37:44;;;;;;;6.43;4.30;;;14.00;99.90;;;;;;5030008;28;20471;-66
2022/08/09 04:40:12;;;;;;;4.80;4.27;;;14.10;99.90;;;;;;5030006;28;20465;-67
2022/08/09 04:42:39;;;;;;;6.20;4.63;;;14.10;99.90;;;;;;5029990;28;20445;-66
2022/08/09 04:45:06;;;;;;;9.13;4.30;;;14.00;99.90;;;;;;5029728;28;20445;-67
2022/08/09 04:47:33;;;;;;;5.10;4.30;;;14.10;99.90;;;;;;5030142;28;20837;-67
2022/08/09 04:50:02;;;;;;;7.13;4.73;;;14.20;99.90;;;;;;5029877;28;20448;-66
2022/08/09 04:52:29;;;;;;;6.70;4.30;;;14.20;99.90;;;;;;5029794;28;20528;-66
2022/08/09 04:54:58;;;;;;;5.70;4.50;;;14.40;99.90;;;;;;5029509;28;20445;-66
2022/08/09 04:57:25;;;;;;;6.20;4.13;;;14.40;99.90;;;;;;5029625;28;20504;-66
2022/08/09 04:59:53;;;;;;;8.13;4.90;;;14.40;99.90;;;;;;5029640;28;20822;-67
2022/08/09 05:02:20;;;;;;;7.83;5.83;;;14.40;99.90;;;;;;5029716;28;20873;-66
2022/08/09 05:04:46;;;;;;;7.90;5.30;;;14.40;99.90;;;;;;5029255;28;20946;-66
2022/08/09 05:07:15;;;;;;;8.00;4.47;;;14.50;99.90;;;;;;5029539;28;20467;-66
2022/08/09 05:09:41;;;;;;;8.10;4.17;;;14.50;99.90;;;;;;5029571;28;20452;-66
2022/08/09 05:12:09;;;;;;;9.80;5.03;;;14.60;99.90;;;;;;5029713;28;20448;-67
2022/08/09 05:14:36;;;;;;;5.00;4.50;;;14.70;99.90;;;;;;5029276;28;20453;-66
2022/08/09 05:17:03;;;;;;;7.10;4.67;;;14.80;99.90;;;;;;5029364;28;20492;-66
2022/08/09 05:19:30;;;;;;;5.43;4.40;;;14.90;99.90;;;;;;5029797;28;20459;-66
2022/08/09 05:21:57;;;;;;;5.03;4.30;;;14.90;99.90;;;;;;5029674;28;20495;-66
2022/08/09 05:24:26;;;;;;;12.10;5.87;;;15.00;99.90;;;;;;5029399;28;20488;-65
2022/08/09 05:26:53;;;;;;;5.73;4.93;;;15.10;99.90;;;;;;5029710;28;20866;-66
2022/08/09 05:29:20;;;;;;;5.10;4.60;;;15.20;99.90;;;;;;5029897;28;20539;-67
2022/08/09 05:31:47;;;;;;;5.40;4.90;;;15.20;99.90;;;;;;5029632;28;20544;-66
2022/08/09 05:34:15;;;;;;;5.50;4.80;;;15.20;99.90;;;;;;5029580;28;20453;-66
2022/08/09 05:36:42;;;;;;;5.03;4.53;;;15.30;99.90;;;;;;5028986;28;20576;-66
2022/08/09 05:39:09;;;;;;;7.60;4.57;;;15.30;99.90;;;;;;5029261;28;20476;-66
2022/08/09 05:41:37;;;;;;;5.07;4.00;;;15.40;99.90;;;;;;5029609;28;20453;-66
2022/08/09 05:44:04;;;;;;;5.80;4.43;;;15.50;99.90;;;;;;5031016;28;20448;-67
2022/08/09 05:46:31;;;;;;;5.40;4.90;;;15.50;99.90;;;;;;5032868;28;20471;-68
2022/08/09 05:48:58;;;;;;;5.40;4.90;;;15.60;99.90;;;;;;5033149;28;20539;-67
2022/08/09 05:51:25;;;;;;;5.53;4.77;;;15.70;99.90;;;;;;5032999;28;20958;-67
2022/08/09 05:53:52;;;;;;;4.67;4.27;;;15.80;99.90;;;;;;5032924;28;20448;-67
2022/08/09 05:56:19;;;;;;;13.00;5.60;;;15.90;99.90;;;;;;5032477;28;21032;-67
2022/08/09 05:58:47;;;;;;;7.60;4.20;;;16.00;99.90;;;;;;5032693;28;20492;-67
2022/08/09 06:01:14;;;;;;;4.80;4.30;;;16.10;99.90;;;;;;5032820;28;20566;-66
2022/08/09 06:03:41;;;;;;;6.93;5.03;;;16.20;99.90;;;;;;5032810;28;20455;-67
2022/08/09 06:06:08;;;;;;;6.03;4.70;;;16.30;99.90;;;;;;5032168;28;20472;-67
2022/08/09 06:08:35;;;;;;;5.43;4.87;;;16.40;99.90;;;;;;5032837;28;20445;-67
2022/08/09 06:11:02;;;;;;;4.90;4.40;;;16.50;99.90;;;;;;5032560;28;20448;-67
2022/08/09 06:13:29;;;;;;;6.93;4.90;;;16.70;99.90;;;;;;5032518;28;20563;-67
2022/08/09 06:15:57;;;;;;;4.90;4.03;;;16.70;99.90;;;;;;5031923;28;20543;-67
2022/08/09 06:18:24;;;;;;;6.30;5.27;;;16.90;99.90;;;;;;5032517;28;20449;-67
2022/08/09 06:20:51;;;;;;;7.20;5.80;;;17.00;99.90;;;;;;5032265;28;20460;-67
2022/08/09 06:23:17;;;;;;;8.10;5.57;;;17.10;99.90;;;;;;5032538;28;20459;-67
2022/08/09 06:25:44;;;;;;;5.43;4.93;;;17.20;99.90;;;;;;5032037;28;20475;-67
2022/08/09 06:28:11;;;;;;;5.70;5.20;;;17.30;99.90;;;;;;5032547;28;20479;-67
2022/08/09 06:30:38;;;;;;;5.10;4.60;;;17.40;99.90;;;;;;5032257;28;20445;-67
2022/08/09 06:33:06;;;;;;;7.23;5.47;;;17.60;99.90;;;;;;5032267;28;20445;-67
2022/08/09 06:35:33;;;;;;;5.73;4.60;;;17.70;99.90;;;;;;5031832;28;20821;-67
2022/08/09 06:38:00;;;;;;;5.20;4.70;;;17.90;99.90;;;;;;5032245;28;20451;-67
2022/08/09 06:40:27;;;;;;;5.40;4.70;;;18.00;99.90;;;;;;5032028;28;20457;-67
2022/08/09 06:42:54;;;;;;;5.90;4.40;;;18.20;99.90;;;;;;5032095;28;20452;-67
2022/08/09 06:45:21;;;;;;;6.50;4.70;;;18.30;99.90;;;;;;5031525;28;20449;-67
2022/08/09 06:47:48;;;;;;;7.43;4.23;;;18.40;99.90;;;;;;5031821;28;20453;-68
2022/08/09 06:50:17;;;;;;;4.90;4.40;;;18.60;99.90;;;;;;5032042;28;20503;-66
2022/08/09 06:52:45;;;;;;;5.30;4.80;;;18.80;99.90;;;;;;5031985;28;20830;-66
2022/08/09 06:55:12;;;;;;;6.60;4.70;;;18.90;99.90;;;;;;5030887;28;20456;-66
2022/08/09 06:57:39;;;;;;;5.30;4.30;;;19.00;99.90;;;;;;5031710;28;20506;-67
2022/08/09 07:00:07;;;;;;;7.20;4.23;;;19.20;99.90;;;;;;5031731;28;20959;-67
2022/08/09 07:02:34;;;;;;;5.53;4.53;;;19.30;99.90;;;;;;5031733;28;20456;-67
2022/08/09 07:05:02;;;;;;;6.40;4.30;;;19.40;99.90;;;;;;5031443;28;20449;-68
2022/08/09 07:07:30;;;;;;;7.87;4.90;;;19.50;99.90;;;;;;5031698;28;20837;-68
2022/08/09 07:09:57;;;;;;;5.23;3.97;;;19.60;99.90;;;;;;5031627;28;20471;-67
2022/08/09 07:12:24;;;;;;;5.50;3.83;;;19.70;99.90;;;;;;5031577;28;20946;-68
2022/08/09 07:14:51;;;;;;;5.30;4.20;;;19.80;99.90;;;;;;5031148;28;20456;-68
2022/08/09 07:17:18;;;;;;;9.20;5.03;;;19.90;99.90;;;;;;5031195;28;20496;-67
2022/08/09 07:19:45;;;;;;;5.40;4.13;;;20.10;99.90;;;;;;5031528;28;20455;-68
2022/08/09 07:22:12;;;;;;;5.07;3.50;;;20.30;99.90;;;;;;5031477;28;20480;-68
2022/08/09 07:24:40;;;;;;;6.80;5.07;;;20.50;99.90;;;;;;5030986;28;20456;-67
2022/08/09 07:27:10;;;;;;;7.17;4.77;;;20.50;99.90;;;;;;5030968;28;20476;-68
2022/08/09 07:29:37;;;;;;;4.20;3.80;;;20.70;99.90;;;;;;5031129;28;20461;-67
2022/08/09 07:32:04;;;;;;;4.63;3.83;;;20.80;99.90;;;;;;5031594;28;20447;-68
2022/08/09 07:34:31;;;;;;;5.53;4.03;;;20.90;99.80;;;;;;5031267;28;20577;-67
2022/08/09 07:36:58;;;;;;;8.00;3.63;;;21.10;99.40;;;;;;5031333;28;20485;-68
2022/08/09 07:39:25;;;;;;;4.23;3.90;;;21.20;99.10;;;;;;5031377;28;20448;-68
2022/08/09 07:41:53;;;;;;;4.50;3.77;;;21.30;99.30;;;;;;5031291;28;20598;-68
2022/08/09 07:44:20;;;;;;;4.20;3.80;;;21.60;98.60;;;;;;5031149;28;20524;-68
2022/08/09 07:46:47;;;;;;;5.07;4.13;;;21.70;98.50;;;;;;5030497;28;20472;-68
2022/08/09 07:49:14;;;;;;;4.27;3.80;;;21.90;97.30;;;;;;5030840;28;20819;-67
2022/08/09 07:51:41;;;;;;;7.00;4.30;;;22.10;96.80;;;;;;5030871;28;20457;-68
2022/08/09 07:54:07;;;;;;;4.90;4.37;;;22.20;96.70;;;;;;5030689;28;20445;-68
2022/08/09 07:56:35;;;;;;;4.87;3.67;;;22.30;95.90;;;;;;5030163;28;20580;-68
2022/08/09 07:59:06;;;;;;;4.37;3.97;;;22.30;95.70;;;;;;5030956;28;20447;-68
2022/08/09 08:01:33;;;;;;;6.57;3.60;;;22.40;96.10;;;;;;5030301;28;20472;-68
2022/08/09 08:04:00;;;;;;;3.40;3.10;;;22.50;96.20;;;;;;5030568;28;20833;-68
2022/08/09 08:06:27;;;;;;;3.90;3.60;;;22.60;96.20;;;;;;5029952;28;20526;-67
2022/08/09 08:08:53;;;;;;;4.90;3.43;;;22.70;95.20;;;;;;5029745;28;20472;-68
2022/08/09 08:11:20;;;;;;;4.43;3.50;;;22.80;94.90;;;;;;5030465;28;20449;-67
2022/08/09 08:13:47;;;;;;;3.63;3.33;;;23.00;95.20;;;;;;5030371;28;20440;-68
2022/08/09 08:16:15;;;;;;;3.80;3.40;;;23.10;93.70;;;;;;5029990;28;20488;-68
2022/08/09 08:18:42;;;;;;;4.47;3.53;;;23.20;93.80;;;;;;5030303;28;20831;-68
2022/08/09 08:21:09;;;;;;;4.80;3.73;;;23.30;93.20;;;;;;5030397;28;20535;-68
2022/08/09 08:23:35;;;;;;;9.70;4.57;;;23.50;93.10;;;;;;5030134;28;20447;-68
2022/08/09 08:26:02;;;;;;;4.73;3.47;;;23.60;93.20;;;;;;5029640;28;20477;-68
2022/08/09 08:28:29;;;;;;;4.60;3.27;;;23.70;92.10;;;;;;5029998;28;20532;-68
2022/08/09 08:30:56;;;;;;;3.47;3.07;;;23.90;91.40;;;;;;5030205;28;20452;-67
2022/08/09 08:33:24;;;;;;;3.70;3.40;;;24.10;91.60;;;;;;5030028;28;20953;-68
2022/08/09 08:35:52;;;;;;;4.13;3.40;;;24.20;91.00;;;;;;5029539;28;21034;-68
2022/08/09 08:38:19;;;;;;;4.20;3.20;;;24.30;90.90;;;;;;5029957;28;20481;-68
2022/08/09 08:40:46;;;;;;;3.37;3.07;;;24.40;91.50;;;;;;5030714;28;20452;-68
2022/08/09 08:43:14;;;;;;;3.60;3.20;;;24.60;89.80;;;;;;5030917;28;20455;-69
2022/08/09 08:45:48;;;;;;;3.70;3.40;;;24.70;90.30;;;;;;5030534;28;20449;-68
2022/08/09 08:48:15;;;;;;;3.70;3.13;;;24.70;89.50;;;;;;5030835;28;20445;-68
2022/08/09 08:50:43;;;;;;;4.77;3.30;;;24.80;89.50;;;;;;5030432;28;20448;-69
2022/08/09 08:53:10;;;;;;;5.03;3.20;;;24.90;88.70;;;;;;5030591;28;20442;-69
2022/08/09 08:55:37;;;;;;;3.73;3.17;;;25.10;88.60;;;;;;5030323;28;20552;-68
2022/08/09 08:58:06;;;;;;;3.40;3.10;;;25.20;88.50;;;;;;5029582;28;20480;-68
2022/08/09 09:00:32;;;;;;;3.87;3.20;;;25.40;87.60;;;;;;5029634;28;20960;-68
2022/08/09 09:03:01;;;;;;;3.63;3.10;;;25.50;86.40;;;;;;5029644;28;21002;-68
2022/08/09 09:05:28;;;;;;;4.23;3.20;;;25.50;87.10;;;;;;5029201;28;20818;-68
2022/08/09 09:07:58;;;;;;;5.27;3.20;;;25.50;87.90;;;;;;5029671;28;21009;-68
2022/08/09 09:10:29;;;;;;;4.33;2.93;;;25.80;87.10;;;;;;5029754;28;20544;-69
2022/08/09 09:12:56;;;;;;;3.20;2.90;;;25.90;84.90;;;;;;5029715;28;20515;-68
2022/08/09 09:15:23;;;;;;;4.40;3.17;;;26.10;83.40;;;;;;5029283;28;20544;-68
2022/08/09 09:17:50;;;;;;;6.60;2.90;;;26.20;81.40;;;;;;5029442;28;20484;-68
2022/08/09 09:20:17;;;;;;;3.00;2.70;;;26.40;82.40;;;;;;5033398;28;20480;-68
2022/08/09 09:22:51;;;;;;;3.63;2.60;;;26.60;81.30;;;;;;5033759;28;20451;-68
2022/08/09 09:25:33;;;;;;;3.80;2.70;;;26.80;79.70;;;;;;5033318;28;20801;-68
2022/08/09 09:28:00;;;;;;;2.97;2.40;;;26.90;78.70;;;;;;5033352;28;20480;-68
2022/08/09 09:30:27;;;;;;;2.80;2.43;;;27.20;79.40;;;;;;5033435;28;20453;-68
2022/08/09 09:33:06;;;;;;;3.23;2.87;;;27.30;78.20;;;;;;5033431;28;20939;-66
2022/08/09 09:35:33;;;;;;;3.17;2.57;;;27.50;74.40;;;;;;5033296;28;20451;-67
2022/08/09 09:38:00;;;;;;;4.20;2.77;;;27.60;75.90;;;;;;5033249;28;20476;-66
2022/08/09 09:40:44;;;;;;;3.00;2.63;;;27.80;74.30;;;;;;5033350;28;20460;-67
2022/08/09 09:43:18;;;;;;;3.33;2.77;;;28.00;71.50;;;;;;5033261;28;20954;-67
2022/08/09 09:45:50;;;;;;;6.13;2.93;;;28.10;72.60;;;;;;5032972;28;20473;-67
2022/08/09 09:48:18;;;;;;;5.93;2.80;;;28.30;72.10;;;;;;5033630;28;20835;-67
2022/08/09 09:50:46;;;;;;;4.97;2.60;;;28.90;66.50;;;;;;5033477;28;20445;-67
2022/08/09 09:53:18;;;;;;;4.93;2.20;;;29.70;65.40;;;;;;5033449;28;20449;-68
2022/08/09 09:55:58;;;;;;;4.63;2.50;;;30.20;62.30;;;;;;5032720;28;20449;-68
2022/08/09 09:58:27;;;;;;;2.93;2.40;;;31.30;59.60;;;;;;5032882;28;21075;-68
2022/08/09 10:00:55;;;;;;;4.03;2.10;;;31.80;56.40;;;;;;5032840;28;20536;-68
2022/08/09 10:03:39;;;;;;;3.30;2.20;;;31.40;57.40;;;;;;5032961;28;20458;-68
2022/08/09 10:06:06;;;;;;;2.70;2.00;;;31.50;57.20;;;;;;5032539;28;20834;-68
2022/08/09 10:08:33;;;;;;;4.37;2.43;;;32.00;56.90;;;;;;5033097;28;20492;-68
2022/08/09 10:11:15;;;;;;;5.93;2.23;;;32.40;56.60;;;;;;5032648;28;20460;-68
2022/08/09 10:13:42;;;;;;;3.07;1.97;;;32.80;54.80;;;;;;5032692;28;20463;-68
2022/08/09 10:16:09;;;;;;;4.93;2.20;;;33.20;53.40;;;;;;5032151;28;20974;-67
2022/08/09 10:18:36;;;;;;;4.90;1.93;;;33.50;52.40;;;;;;5032385;28;20497;-68
2022/08/09 10:21:07;;;;;;;3.90;2.00;;;33.20;51.70;;;;;;5032605;28;20448;-68
2022/08/09 10:23:34;;;;;;;4.00;2.17;;;32.70;51.10;;;;;;5032576;28;20527;-68
2022/08/09 10:26:03;;;;;;;6.10;2.20;;;32.40;51.90;;;;;;5031848;28;20483;-68
2022/08/09 10:28:33;;;;;;;2.87;2.07;;;32.50;51.90;;;;;;5032243;28;20825;-68
2022/08/09 10:31:00;;;;;;;2.87;2.07;;;32.10;51.30;;;;;;5031505;28;20480;-67
2022/08/09 10:33:28;;;;;;;5.20;2.60;;;31.80;52.90;;;;;;5032407;28;20475;-68
2022/08/09 10:35:56;;;;;;;4.80;2.70;;;31.50;52.60;;;;;;5031983;28;20471;-68
2022/08/09 10:38:24;;;;;;;3.93;2.17;;;31.50;53.50;;;;;;5032265;28;20477;-68
2022/08/09 10:40:50;;;;;;;3.93;2.50;;;31.70;53.20;;;;;;5032097;28;20449;-68
2022/08/09 10:43:19;;;;;;;3.43;2.10;;;32.00;53.20;;;;;;5031916;28;20507;-68
2022/08/09 10:45:46;;;;;;;2.80;2.30;;;32.00;51.20;;;;;;5031758;28;20487;-68
2022/08/09 10:48:20;;;;;;;3.70;2.30;;;32.40;51.10;;;;;;5031977;28;20447;-68
2022/08/09 10:51:08;;;;;;;2.50;2.00;;;32.90;51.90;;;;;;5031844;28;20453;-68
2022/08/09 10:53:52;;;;;;;3.33;2.13;;;33.20;48.90;;;;;;5031854;28;20543;-68
2022/08/09 10:56:22;;;;;;;3.17;2.07;;;33.10;48.00;;;;;;5031602;28;20838;-68
2022/08/09 10:58:52;;;;;;;2.47;1.70;;;32.80;49.50;;;;;;5031678;28;20480;-68
2022/08/09 11:01:38;;;;;;;2.63;2.10;;;33.20;49.30;;;;;;5031910;28;20452;-68
2022/08/09 11:04:20;;;;;;;4.13;2.40;;;33.30;47.50;;;;;;5031628;28;20453;-68
2022/08/09 11:06:48;;;;;;;3.10;2.03;;;33.60;47.30;;;;;;5031572;28;20499;-69
2022/08/09 11:09:18;;;;;;;3.60;2.20;;;34.00;46.50;;;;;;5031721;28;20445;-68
2022/08/09 11:12:11;;;;;;;3.40;1.80;;;34.30;46.40;;;;;;5031680;28;20453;-68
2022/08/09 11:14:43;;;;;;;2.93;1.73;;;34.40;46.70;;;;;;5031112;28;20955;-68
2022/08/09 11:17:50;;;;;;;3.27;1.80;;;34.60;46.30;;;;;;5031428;28;20489;-68
2022/08/09 11:20:18;;;;;;;3.90;2.27;;;34.70;45.80;;;;;;5031694;28;20465;-67
2022/08/09 11:23:00;;;;;;;6.73;2.20;;;35.10;45.10;;;;;;5031288;28;20476;-68
2022/08/09 11:25:42;;;;;;;4.93;2.10;;;35.30;45.40;;;;;;5031130;28;20519;-68
2022/08/09 11:28:40;;;;;;;2.80;2.43;;;34.60;42.80;;;;;;5031217;28;20923;-68
2022/08/09 11:31:46;;;;;;;3.00;2.10;;;34.10;45.50;;;;;;4950543;29;20444;-68
2022/08/09 11:34:40;;;;;;;2.50;1.97;;;33.80;46.00;;;;;;5031152;28;20440;-68
2022/08/09 11:37:10;;;;;;;3.20;2.03;;;34.00;45.10;;;;;;5031034;28;20472;-69
2022/08/09 11:40:01;;;;;;;4.87;1.80;;;34.30;46.70;;;;;;5031115;28;21041;-67
2022/08/09 11:42:39;;;;;;;3.70;1.93;;;34.70;43.90;;;;;;5030993;28;20457;-68
2022/08/09 11:45:19;;;;;;;3.60;2.33;;;35.00;43.40;;;;;;5030871;28;20444;-68
2022/08/09 11:47:50;;;;;;;5.87;2.07;;;35.40;43.40;;;;;;5030940;28;20492;-68
2022/08/09 11:50:17;;;;;;;3.10;2.03;;;35.70;42.90;;;;;;5031225;28;20452;-68
2022/08/09 11:53:21;;;;;;;2.63;1.67;;;35.30;42.10;;;;;;5030890;28;20910;-68
2022/08/09 11:55:48;;;;;;;2.90;2.10;;;34.50;42.20;;;;;;5030548;28;20476;-68
2022/08/09 11:58:41;;;;;;;3.17;2.03;;;34.40;44.30;;;;;;5030855;28;20483;-68
2022/08/09 12:01:08;;;;;;;4.73;2.00;;;34.50;44.10;;;;;;5031093;28;20452;-68
2022/08/09 12:03:37;;;;;;;2.50;1.90;;;34.80;44.00;;;;;;5030934;28;20448;-68
2022/08/09 12:06:15;;;;;;;3.17;2.03;;;35.10;43.20;;;;;;5030285;28;21005;-68
2022/08/09 12:08:50;;;;;;;4.60;1.90;;;34.60;41.10;;;;;;5030590;28;20448;-68
2022/08/09 12:11:19;;;;;;;4.93;2.10;;;33.60;42.40;;;;;;5030768;28;20463;-68
2022/08/09 12:13:48;;;;;;;5.57;2.00;;;33.90;44.20;;;;;;5031327;28;20447;-68
2022/08/09 12:16:17;;;;;;;3.10;1.80;;;34.40;42.00;;;;;;5030025;28;20480;-68
2022/08/09 12:18:47;;;;;;;3.07;1.60;;;34.40;42.80;;;;;;5030778;28;20489;-68
2022/08/09 12:21:24;;;;;;;2.63;1.93;;;34.90;41.90;;;;;;5030958;28;20449;-68
2022/08/09 12:23:52;;;;;;;2.90;2.20;;;35.30;42.20;;;;;;5030896;28;20444;-68
2022/08/09 12:26:19;;;;;;;4.50;2.17;;;35.00;40.50;;;;;;5030618;28;20473;-68
2022/08/09 12:28:50;;;;;;;2.70;2.03;;;34.30;41.20;;;;;;5031205;28;20536;-67
2022/08/09 12:31:20;;;;;;;3.83;2.13;;;33.70;42.20;;;;;;5030836;28;20840;-67
2022/08/09 12:33:49;;;;;;;3.07;2.00;;;32.90;42.50;;;;;;5030107;28;20535;-67
2022/08/09 12:36:17;;;;;;;4.60;2.10;;;32.90;43.40;;;;;;5029693;28;20471;-67
2022/08/09 12:38:44;;;;;;;3.10;1.90;;;33.00;43.00;;;;;;5029955;28;20484;-67
2022/08/09 12:41:11;;;;;;;3.10;1.90;;;33.90;44.00;;;;;;5030083;28;20438;-67
2022/08/09 12:43:39;;;;;;;4.03;1.80;;;34.50;40.80;;;;;;5030127;28;20487;-67
2022/08/09 12:46:07;;;;;;;6.40;2.07;;;35.20;40.60;;;;;;5029469;28;20550;-69
2022/08/09 12:48:34;;;;;;;3.40;1.70;;;35.20;39.80;;;;;;5030165;28;20448;-67
2022/08/09 12:51:03;;;;;;;3.17;1.90;;;35.50;40.40;;;;;;5030182;28;20551;-67
2022/08/09 12:53:33;;;;;;;2.77;1.70;;;35.90;39.80;;;;;;5029253;28;20503;-67
2022/08/09 12:56:12;;;;;;;2.97;1.90;;;36.30;38.40;;;;;;5029570;28;20472;-67
2022/08/09 12:58:40;;;;;;;2.20;1.60;;;36.40;37.30;;;;;;5029676;28;20912;-67